sensor_id;sensor_type;location;lat;lon;timestamp;pressure;altitude;pressure_sealevel;temperature
69597;BMP180;70000;51.176;-115.568;2024-02-16T00:00:35;86783.60;;;-2.80
69597;BMP180;70000;51.176;-115.568;2024-02-16T00:03:05;86785.40;;;-3.00
69597;BMP180;70000;51.176;-115.568;2024-02-16T00:05:38;86785.40;;;-3.10
69597;BMP180;70000;51.176;-115.568;2024-02-16T00:08:07;86784.00;;;-3.20
69597;BMP180;70000;51.176;-115.568;2024-02-16T00:10:37;86783.00;;;-3.30
69597;BMP180;70000;51.176;-115.568;2024-02-16T00:13:07;86790.40;;;-3.30
69597;BMP180;70000;51.176;-115.568;2024-02-16T00:15:39;86792.00;;;-3.40
69597;BMP180;70000;51.176;-115.568;2024-02-16T00:18:08;86790.40;;;-3.54
69597;BMP180;70000;51.176;-115.568;2024-02-16T00:20:38;86794.40;;;-3.68
69597;BMP180;70000;51.176;-115.568;2024-02-16T00:23:07;86804.20;;;-3.78
69597;BMP180;70000;51.176;-115.568;2024-02-16T00:25:36;86801.80;;;-3.90
69597;BMP180;70000;51.176;-115.568;2024-02-16T00:28:07;86816.80;;;-4.00
69597;BMP180;70000;51.176;-115.568;2024-02-16T00:30:36;86817.00;;;-4.20
69597;BMP180;70000;51.176;-115.568;2024-02-16T00:33:05;86816.00;;;-4.40
69597;BMP180;70000;51.176;-115.568;2024-02-16T00:35:36;86824.20;;;-4.50
69597;BMP180;70000;51.176;-115.568;2024-02-16T00:38:04;86828.20;;;-4.62
69597;BMP180;70000;51.176;-115.568;2024-02-16T00:40:34;86833.00;;;-4.78
69597;BMP180;70000;51.176;-115.568;2024-02-16T00:43:03;86842.00;;;-4.90
69597;BMP180;70000;51.176;-115.568;2024-02-16T00:45:33;86836.80;;;-5.00
69597;BMP180;70000;51.176;-115.568;2024-02-16T00:55:18;86854.80;;;-5.48
69597;BMP180;70000;51.176;-115.568;2024-02-16T00:57:50;86856.80;;;-5.58
69597;BMP180;70000;51.176;-115.568;2024-02-16T01:00:19;86854.80;;;-5.70
69597;BMP180;70000;51.176;-115.568;2024-02-16T01:02:52;86862.20;;;-5.80
69597;BMP180;70000;51.176;-115.568;2024-02-16T01:05:24;86866.20;;;-5.88
69597;BMP180;70000;51.176;-115.568;2024-02-16T01:07:53;86877.60;;;-5.94
69597;BMP180;70000;51.176;-115.568;2024-02-16T01:10:22;86878.40;;;-6.00
69597;BMP180;70000;51.176;-115.568;2024-02-16T01:12:51;86877.00;;;-6.10
69597;BMP180;70000;51.176;-115.568;2024-02-16T01:15:21;86876.60;;;-6.20
69597;BMP180;70000;51.176;-115.568;2024-02-16T01:17:52;86879.80;;;-6.30
69597;BMP180;70000;51.176;-115.568;2024-02-16T01:20:23;86879.80;;;-6.36
69597;BMP180;70000;51.176;-115.568;2024-02-16T01:22:54;86891.60;;;-6.40
69597;BMP180;70000;51.176;-115.568;2024-02-16T01:25:24;86892.00;;;-6.50
69597;BMP180;70000;51.176;-115.568;2024-02-16T01:27:54;86892.60;;;-6.60
69597;BMP180;70000;51.176;-115.568;2024-02-16T01:30:28;86902.80;;;-6.70
69597;BMP180;70000;51.176;-115.568;2024-02-16T01:33:01;86904.80;;;-6.70
69597;BMP180;70000;51.176;-115.568;2024-02-16T01:35:32;86901.80;;;-6.80
69597;BMP180;70000;51.176;-115.568;2024-02-16T01:38:05;86904.20;;;-6.90
69597;BMP180;70000;51.176;-115.568;2024-02-16T01:40:43;86908.60;;;-6.90
69597;BMP180;70000;51.176;-115.568;2024-02-16T01:43:22;86911.40;;;-7.00
69597;BMP180;70000;51.176;-115.568;2024-02-16T01:45:51;86914.20;;;-7.10
69597;BMP180;70000;51.176;-115.568;2024-02-16T01:48:21;86914.20;;;-7.20
69597;BMP180;70000;51.176;-115.568;2024-02-16T01:50:52;86915.60;;;-7.30
69597;BMP180;70000;51.176;-115.568;2024-02-16T01:53:26;86912.40;;;-7.32
69597;BMP180;70000;51.176;-115.568;2024-02-16T01:55:57;86920.00;;;-7.40
69597;BMP180;70000;51.176;-115.568;2024-02-16T01:58:29;86919.00;;;-7.52
69597;BMP180;70000;51.176;-115.568;2024-02-16T02:00:59;86922.40;;;-7.60
69597;BMP180;70000;51.176;-115.568;2024-02-16T02:03:30;86931.60;;;-7.70
69597;BMP180;70000;51.176;-115.568;2024-02-16T02:06:00;86936.60;;;-7.80
69597;BMP180;70000;51.176;-115.568;2024-02-16T02:08:30;86938.40;;;-7.80
69597;BMP180;70000;51.176;-115.568;2024-02-16T02:11:02;86936.60;;;-7.90
69597;BMP180;70000;51.176;-115.568;2024-02-16T02:13:32;86940.20;;;-8.00
69597;BMP180;70000;51.176;-115.568;2024-02-16T02:16:04;86940.00;;;-8.04
69597;BMP180;70000;51.176;-115.568;2024-02-16T02:18:34;86947.00;;;-8.10
69597;BMP180;70000;51.176;-115.568;2024-02-16T02:21:20;86959.00;;;-8.20
69597;BMP180;70000;51.176;-115.568;2024-02-16T02:23:52;86963.00;;;-8.20
69597;BMP180;70000;51.176;-115.568;2024-02-16T02:26:22;86965.60;;;-8.20
69597;BMP180;70000;51.176;-115.568;2024-02-16T02:28:52;86967.20;;;-8.20
69597;BMP180;70000;51.176;-115.568;2024-02-16T02:31:21;86974.40;;;-8.28
69597;BMP180;70000;51.176;-115.568;2024-02-16T02:33:50;86975.00;;;-8.32
69597;BMP180;70000;51.176;-115.568;2024-02-16T02:36:20;86975.20;;;-8.40
69597;BMP180;70000;51.176;-115.568;2024-02-16T02:38:53;86982.80;;;-8.40
69597;BMP180;70000;51.176;-115.568;2024-02-16T02:41:23;86987.20;;;-8.50
69597;BMP180;70000;51.176;-115.568;2024-02-16T02:43:53;86990.60;;;-8.60
69597;BMP180;70000;51.176;-115.568;2024-02-16T02:46:23;86997.80;;;-8.60
69597;BMP180;70000;51.176;-115.568;2024-02-16T02:48:52;86995.00;;;-8.60
69597;BMP180;70000;51.176;-115.568;2024-02-16T02:51:22;86985.00;;;-8.60
69597;BMP180;70000;51.176;-115.568;2024-02-16T02:53:51;86984.60;;;-8.70
69597;BMP180;70000;51.176;-115.568;2024-02-16T02:56:21;86984.00;;;-8.70
69597;BMP180;70000;51.176;-115.568;2024-02-16T02:58:51;86987.40;;;-8.80
69597;BMP180;70000;51.176;-115.568;2024-02-16T03:01:20;86997.80;;;-8.80
69597;BMP180;70000;51.176;-115.568;2024-02-16T03:03:50;86996.80;;;-8.90
69597;BMP180;70000;51.176;-115.568;2024-02-16T03:06:25;86998.40;;;-9.00
69597;BMP180;70000;51.176;-115.568;2024-02-16T03:08:57;87000.40;;;-9.00
69597;BMP180;70000;51.176;-115.568;2024-02-16T03:11:27;87005.80;;;-9.00
69597;BMP180;70000;51.176;-115.568;2024-02-16T03:13:56;87014.40;;;-9.10
69597;BMP180;70000;51.176;-115.568;2024-02-16T03:16:44;87022.00;;;-9.18
69597;BMP180;70000;51.176;-115.568;2024-02-16T03:19:13;87026.60;;;-9.20
69597;BMP180;70000;51.176;-115.568;2024-02-16T03:21:43;87026.20;;;-9.20
69597;BMP180;70000;51.176;-115.568;2024-02-16T03:24:12;87023.80;;;-9.30
69597;BMP180;70000;51.176;-115.568;2024-02-16T03:26:42;87025.60;;;-9.30
69597;BMP180;70000;51.176;-115.568;2024-02-16T03:29:29;87031.20;;;-9.40
69597;BMP180;70000;51.176;-115.568;2024-02-16T03:31:58;87036.60;;;-9.40
69597;BMP180;70000;51.176;-115.568;2024-02-16T03:34:31;87034.80;;;-9.50
69597;BMP180;70000;51.176;-115.568;2024-02-16T03:37:00;87029.60;;;-9.54
69597;BMP180;70000;51.176;-115.568;2024-02-16T03:39:29;87034.80;;;-9.60
69597;BMP180;70000;51.176;-115.568;2024-02-16T03:41:59;87043.00;;;-9.62
69597;BMP180;70000;51.176;-115.568;2024-02-16T03:44:32;87045.60;;;-9.70
69597;BMP180;70000;51.176;-115.568;2024-02-16T03:47:01;87056.20;;;-9.80
69597;BMP180;70000;51.176;-115.568;2024-02-16T03:49:31;87063.20;;;-9.80
69597;BMP180;70000;51.176;-115.568;2024-02-16T03:52:26;87067.40;;;-9.90
69597;BMP180;70000;51.176;-115.568;2024-02-16T03:54:55;87073.60;;;-9.90
69597;BMP180;70000;51.176;-115.568;2024-02-16T03:57:25;87068.60;;;-9.98
69597;BMP180;70000;51.176;-115.568;2024-02-16T04:00:01;87076.00;;;-10.00
69597;BMP180;70000;51.176;-115.568;2024-02-16T04:02:34;87080.80;;;-10.00
69597;BMP180;70000;51.176;-115.568;2024-02-16T04:05:09;87084.20;;;-10.10
69597;BMP180;70000;51.176;-115.568;2024-02-16T04:07:49;87089.60;;;-10.10
69597;BMP180;70000;51.176;-115.568;2024-02-16T04:24:34;87111.00;;;-9.78
69597;BMP180;70000;51.176;-115.568;2024-02-16T04:31:55;87118.00;;;-9.90
69597;BMP180;70000;51.176;-115.568;2024-02-16T04:34:40;87123.40;;;-10.10
69597;BMP180;70000;51.176;-115.568;2024-02-16T04:37:44;87135.80;;;-10.18
69597;BMP180;70000;51.176;-115.568;2024-02-16T04:40:13;87138.60;;;-10.20
69597;BMP180;70000;51.176;-115.568;2024-02-16T04:42:42;87138.40;;;-10.30
69597;BMP180;70000;51.176;-115.568;2024-02-16T04:45:48;87141.20;;;-10.40
69597;BMP180;70000;51.176;-115.568;2024-02-16T04:48:30;87141.40;;;-10.60
69597;BMP180;70000;51.176;-115.568;2024-02-16T04:51:27;87146.60;;;-10.68
69597;BMP180;70000;51.176;-115.568;2024-02-16T04:54:00;87146.20;;;-10.70
69597;BMP180;70000;51.176;-115.568;2024-02-16T04:56:36;87148.40;;;-10.80
69597;BMP180;70000;51.176;-115.568;2024-02-16T05:27:09;87167.20;;;-10.18
69597;BMP180;70000;51.176;-115.568;2024-02-16T05:29:50;87170.80;;;-10.24
69597;BMP180;70000;51.176;-115.568;2024-02-16T05:37:34;87187.60;;;-10.80
69597;BMP180;70000;51.176;-115.568;2024-02-16T05:51:23;87191.00;;;-10.84
69597;BMP180;70000;51.176;-115.568;2024-02-16T05:53:54;87190.80;;;-10.90
69597;BMP180;70000;51.176;-115.568;2024-02-16T05:56:31;87190.20;;;-11.10
69597;BMP180;70000;51.176;-115.568;2024-02-16T05:59:13;87198.00;;;-11.20
69597;BMP180;70000;51.176;-115.568;2024-02-16T06:01:50;87201.00;;;-11.40
69597;BMP180;70000;51.176;-115.568;2024-02-16T06:04:33;87203.20;;;-11.50
69597;BMP180;70000;51.176;-115.568;2024-02-16T06:07:15;87200.40;;;-11.66
69597;BMP180;70000;51.176;-115.568;2024-02-16T06:09:49;87209.60;;;-11.76
69597;BMP180;70000;51.176;-115.568;2024-02-16T06:12:55;87220.40;;;-11.82
69597;BMP180;70000;51.176;-115.568;2024-02-16T06:36:22;87216.40;;;-11.92
69597;BMP180;70000;51.176;-115.568;2024-02-16T06:39:30;87218.80;;;-11.90
69597;BMP180;70000;51.176;-115.568;2024-02-16T08:53:36;87313.00;;;-12.74
69597;BMP180;70000;51.176;-115.568;2024-02-16T10:45:50;87390.60;;;-14.20
69597;BMP180;70000;51.176;-115.568;2024-02-16T14:32:21;87492.80;;;-15.70
69597;BMP180;70000;51.176;-115.568;2024-02-16T14:35:09;87498.40;;;-15.80
69597;BMP180;70000;51.176;-115.568;2024-02-16T14:38:00;87505.80;;;-16.08
69597;BMP180;70000;51.176;-115.568;2024-02-16T14:41:21;87506.80;;;-16.30
69597;BMP180;70000;51.176;-115.568;2024-02-16T14:47:19;87519.40;;;-16.60
69597;BMP180;70000;51.176;-115.568;2024-02-16T14:49:50;87525.40;;;-16.80
69597;BMP180;70000;51.176;-115.568;2024-02-16T14:52:23;87529.40;;;-17.04
69597;BMP180;70000;51.176;-115.568;2024-02-16T14:54:52;87535.40;;;-17.18
69597;BMP180;70000;51.176;-115.568;2024-02-16T14:57:24;87530.60;;;-17.30
69597;BMP180;70000;51.176;-115.568;2024-02-16T14:59:53;87532.40;;;-17.30
69597;BMP180;70000;51.176;-115.568;2024-02-16T15:02:25;87533.00;;;-17.34
69597;BMP180;70000;51.176;-115.568;2024-02-16T15:10:48;87544.20;;;-17.50
69597;BMP180;70000;51.176;-115.568;2024-02-16T15:13:18;87540.60;;;-17.50
69597;BMP180;70000;51.176;-115.568;2024-02-16T15:15:49;87540.00;;;-17.50
69597;BMP180;70000;51.176;-115.568;2024-02-16T15:18:18;87535.20;;;-17.50
69597;BMP180;70000;51.176;-115.568;2024-02-16T15:20:47;87534.00;;;-17.50
69597;BMP180;70000;51.176;-115.568;2024-02-16T15:23:18;87535.80;;;-17.68
69597;BMP180;70000;51.176;-115.568;2024-02-16T15:25:47;87537.00;;;-17.70
69597;BMP180;70000;51.176;-115.568;2024-02-16T15:28:15;87540.60;;;-17.72
69597;BMP180;70000;51.176;-115.568;2024-02-16T15:30:46;87545.00;;;-17.80
69597;BMP180;70000;51.176;-115.568;2024-02-16T15:33:18;87552.20;;;-17.90
69597;BMP180;70000;51.176;-115.568;2024-02-16T15:35:47;87546.20;;;-18.10
69597;BMP180;70000;51.176;-115.568;2024-02-16T15:38:15;87554.00;;;-18.20
69597;BMP180;70000;51.176;-115.568;2024-02-16T15:40:43;87554.20;;;-18.20
69597;BMP180;70000;51.176;-115.568;2024-02-16T15:43:12;87561.40;;;-18.20
69597;BMP180;70000;51.176;-115.568;2024-02-16T15:45:43;87561.00;;;-18.20
69597;BMP180;70000;51.176;-115.568;2024-02-16T15:48:14;87565.20;;;-18.14
69597;BMP180;70000;51.176;-115.568;2024-02-16T15:50:43;87569.80;;;-18.12
69597;BMP180;70000;51.176;-115.568;2024-02-16T15:53:12;87570.40;;;-18.10
69597;BMP180;70000;51.176;-115.568;2024-02-16T15:55:40;87579.80;;;-18.08
69597;BMP180;70000;51.176;-115.568;2024-02-16T15:58:10;87579.20;;;-18.10
69597;BMP180;70000;51.176;-115.568;2024-02-16T16:00:38;87576.80;;;-18.10
69597;BMP180;70000;51.176;-115.568;2024-02-16T16:03:07;87579.20;;;-18.10
69597;BMP180;70000;51.176;-115.568;2024-02-16T16:05:37;87573.20;;;-18.10
69597;BMP180;70000;51.176;-115.568;2024-02-16T16:08:06;87570.00;;;-18.00
69597;BMP180;70000;51.176;-115.568;2024-02-16T16:10:34;87567.80;;;-18.00
69597;BMP180;70000;51.176;-115.568;2024-02-16T16:13:04;87567.40;;;-18.00
69597;BMP180;70000;51.176;-115.568;2024-02-16T16:15:42;87565.00;;;-17.92
69597;BMP180;70000;51.176;-115.568;2024-02-16T16:18:14;87567.20;;;-17.90
69597;BMP180;70000;51.176;-115.568;2024-02-16T16:20:42;87572.80;;;-17.90
69597;BMP180;70000;51.176;-115.568;2024-02-16T16:23:11;87573.20;;;-17.90
69597;BMP180;70000;51.176;-115.568;2024-02-16T16:25:40;87573.20;;;-18.00
69597;BMP180;70000;51.176;-115.568;2024-02-16T16:28:08;87579.20;;;-18.00
69597;BMP180;70000;51.176;-115.568;2024-02-16T16:30:37;87577.40;;;-18.00
69597;BMP180;70000;51.176;-115.568;2024-02-16T16:33:06;87574.00;;;-18.00
69597;BMP180;70000;51.176;-115.568;2024-02-16T16:35:35;87573.80;;;-18.00
69597;BMP180;70000;51.176;-115.568;2024-02-16T16:38:04;87573.00;;;-17.90
69597;BMP180;70000;51.176;-115.568;2024-02-16T16:40:35;87568.80;;;-17.80
69597;BMP180;70000;51.176;-115.568;2024-02-16T16:43:04;87565.20;;;-17.70
69597;BMP180;70000;51.176;-115.568;2024-02-16T16:45:33;87563.00;;;-17.60
69597;BMP180;70000;51.176;-115.568;2024-02-16T16:48:02;87570.00;;;-17.46
69597;BMP180;70000;51.176;-115.568;2024-02-16T16:50:32;87562.40;;;-17.32
69597;BMP180;70000;51.176;-115.568;2024-02-16T16:53:04;87569.60;;;-17.22
69597;BMP180;70000;51.176;-115.568;2024-02-16T16:55:32;87563.20;;;-17.20
69597;BMP180;70000;51.176;-115.568;2024-02-16T16:58:00;87567.20;;;-17.10
69597;BMP180;70000;51.176;-115.568;2024-02-16T17:00:29;87567.80;;;-17.00
69597;BMP180;70000;51.176;-115.568;2024-02-16T17:02:57;87565.20;;;-16.90
69597;BMP180;70000;51.176;-115.568;2024-02-16T17:05:27;87568.60;;;-16.80
69597;BMP180;70000;51.176;-115.568;2024-02-16T17:07:56;87557.60;;;-16.70
69597;BMP180;70000;51.176;-115.568;2024-02-16T17:10:25;87551.40;;;-16.60
69597;BMP180;70000;51.176;-115.568;2024-02-16T17:12:53;87562.80;;;-16.50
69597;BMP180;70000;51.176;-115.568;2024-02-16T17:15:23;87554.40;;;-16.40
69597;BMP180;70000;51.176;-115.568;2024-02-16T17:17:52;87551.60;;;-16.30
69597;BMP180;70000;51.176;-115.568;2024-02-16T17:20:21;87547.60;;;-16.20
69597;BMP180;70000;51.176;-115.568;2024-02-16T17:22:56;87549.20;;;-16.02
69597;BMP180;70000;51.176;-115.568;2024-02-16T17:25:25;87544.40;;;-15.90
69597;BMP180;70000;51.176;-115.568;2024-02-16T17:27:54;87541.00;;;-15.80
69597;BMP180;70000;51.176;-115.568;2024-02-16T17:30:23;87538.00;;;-15.68
69597;BMP180;70000;51.176;-115.568;2024-02-16T17:32:51;87529.20;;;-15.52
69597;BMP180;70000;51.176;-115.568;2024-02-16T17:35:20;87518.00;;;-15.40
69597;BMP180;70000;51.176;-115.568;2024-02-16T17:37:56;87526.80;;;-15.30
69597;BMP180;70000;51.176;-115.568;2024-02-16T17:40:25;87523.60;;;-15.20
69597;BMP180;70000;51.176;-115.568;2024-02-16T17:42:53;87528.40;;;-15.10
69597;BMP180;70000;51.176;-115.568;2024-02-16T17:45:23;87526.60;;;-14.98
69597;BMP180;70000;51.176;-115.568;2024-02-16T17:47:51;87529.40;;;-14.90
69597;BMP180;70000;51.176;-115.568;2024-02-16T17:50:20;87526.80;;;-14.80
69597;BMP180;70000;51.176;-115.568;2024-02-16T17:52:48;87523.40;;;-14.68
69597;BMP180;70000;51.176;-115.568;2024-02-16T17:55:17;87518.00;;;-14.60
69597;BMP180;70000;51.176;-115.568;2024-02-16T17:57:46;87518.80;;;-14.50
69597;BMP180;70000;51.176;-115.568;2024-02-16T18:00:16;87515.60;;;-14.36
69597;BMP180;70000;51.176;-115.568;2024-02-16T18:02:45;87509.80;;;-14.20
69597;BMP180;70000;51.176;-115.568;2024-02-16T18:05:16;87507.40;;;-14.10
69597;BMP180;70000;51.176;-115.568;2024-02-16T18:07:44;87503.40;;;-13.90
69597;BMP180;70000;51.176;-115.568;2024-02-16T18:10:16;87497.60;;;-13.80
69597;BMP180;70000;51.176;-115.568;2024-02-16T18:12:45;87498.20;;;-13.60
69597;BMP180;70000;51.176;-115.568;2024-02-16T18:15:15;87500.00;;;-13.50
69597;BMP180;70000;51.176;-115.568;2024-02-16T18:17:44;87493.20;;;-13.40
69597;BMP180;70000;51.176;-115.568;2024-02-16T18:20:13;87497.60;;;-13.30
69597;BMP180;70000;51.176;-115.568;2024-02-16T18:22:43;87495.40;;;-13.20
69597;BMP180;70000;51.176;-115.568;2024-02-16T18:25:15;87495.80;;;-13.10
69597;BMP180;70000;51.176;-115.568;2024-02-16T18:27:43;87495.60;;;-13.02
69597;BMP180;70000;51.176;-115.568;2024-02-16T18:30:12;87488.60;;;-12.92
69597;BMP180;70000;51.176;-115.568;2024-02-16T18:32:41;87489.60;;;-12.80
69597;BMP180;70000;51.176;-115.568;2024-02-16T18:35:10;87493.00;;;-12.70
69597;BMP180;70000;51.176;-115.568;2024-02-16T18:37:44;87493.60;;;-12.54
69597;BMP180;70000;51.176;-115.568;2024-02-16T18:40:13;87485.20;;;-12.40
69597;BMP180;70000;51.176;-115.568;2024-02-16T18:42:41;87484.40;;;-12.30
69597;BMP180;70000;51.176;-115.568;2024-02-16T18:45:10;87482.80;;;-12.10
69597;BMP180;70000;51.176;-115.568;2024-02-16T18:47:41;87477.40;;;-12.00
69597;BMP180;70000;51.176;-115.568;2024-02-16T18:50:11;87479.60;;;-11.90
69597;BMP180;70000;51.176;-115.568;2024-02-16T18:52:40;87480.40;;;-11.80
69597;BMP180;70000;51.176;-115.568;2024-02-16T18:55:08;87475.60;;;-11.66
69597;BMP180;70000;51.176;-115.568;2024-02-16T18:57:37;87471.00;;;-11.46
69597;BMP180;70000;51.176;-115.568;2024-02-16T19:00:06;87462.40;;;-11.28
69597;BMP180;70000;51.176;-115.568;2024-02-16T19:02:36;87457.20;;;-11.10
69597;BMP180;70000;51.176;-115.568;2024-02-16T19:05:10;87453.60;;;-11.00
69597;BMP180;70000;51.176;-115.568;2024-02-16T19:07:39;87456.80;;;-10.88
69597;BMP180;70000;51.176;-115.568;2024-02-16T19:10:07;87456.40;;;-10.68
69597;BMP180;70000;51.176;-115.568;2024-02-16T19:12:36;87451.60;;;-10.48
69597;BMP180;70000;51.176;-115.568;2024-02-16T19:15:05;87447.80;;;-10.30
69597;BMP180;70000;51.176;-115.568;2024-02-16T19:17:35;87436.00;;;-10.10
69597;BMP180;70000;51.176;-115.568;2024-02-16T19:20:04;87434.60;;;-9.90
69597;BMP180;70000;51.176;-115.568;2024-02-16T19:22:33;87429.40;;;-9.76
69597;BMP180;70000;51.176;-115.568;2024-02-16T19:25:01;87425.40;;;-9.60
69597;BMP180;70000;51.176;-115.568;2024-02-16T19:27:33;87417.80;;;-9.40
69597;BMP180;70000;51.176;-115.568;2024-02-16T19:30:04;87415.40;;;-9.30
69597;BMP180;70000;51.176;-115.568;2024-02-16T19:32:36;87417.40;;;-9.14
69597;BMP180;70000;51.176;-115.568;2024-02-16T19:35:05;87409.40;;;-9.00
69597;BMP180;70000;51.176;-115.568;2024-02-16T19:37:35;87404.20;;;-9.00
69597;BMP180;70000;51.176;-115.568;2024-02-16T19:40:09;87400.20;;;-8.82
69597;BMP180;70000;51.176;-115.568;2024-02-16T19:42:38;87405.20;;;-8.70
69597;BMP180;70000;51.176;-115.568;2024-02-16T19:45:07;87401.40;;;-8.58
69597;BMP180;70000;51.176;-115.568;2024-02-16T19:47:37;87400.40;;;-8.40
69597;BMP180;70000;51.176;-115.568;2024-02-16T19:50:07;87394.60;;;-8.30
69597;BMP180;70000;51.176;-115.568;2024-02-16T19:52:36;87393.60;;;-8.24
69597;BMP180;70000;51.176;-115.568;2024-02-16T19:55:08;87390.40;;;-8.20
69597;BMP180;70000;51.176;-115.568;2024-02-16T20:01:01;87379.60;;;-7.92
69597;BMP180;70000;51.176;-115.568;2024-02-16T20:03:42;87381.80;;;-7.82
69597;BMP180;70000;51.176;-115.568;2024-02-16T20:06:12;87369.00;;;-7.70
69597;BMP180;70000;51.176;-115.568;2024-02-16T20:08:42;87372.80;;;-7.50
69597;BMP180;70000;51.176;-115.568;2024-02-16T20:11:12;87367.00;;;-7.40
69597;BMP180;70000;51.176;-115.568;2024-02-16T20:13:41;87362.80;;;-7.20
69597;BMP180;70000;51.176;-115.568;2024-02-16T20:16:13;87358.20;;;-7.00
69597;BMP180;70000;51.176;-115.568;2024-02-16T20:18:42;87359.00;;;-6.80
69597;BMP180;70000;51.176;-115.568;2024-02-16T20:21:11;87358.20;;;-6.62
69597;BMP180;70000;51.176;-115.568;2024-02-16T20:23:44;87351.60;;;-6.50
69597;BMP180;70000;51.176;-115.568;2024-02-16T20:26:24;87352.80;;;-6.40
69597;BMP180;70000;51.176;-115.568;2024-02-16T20:28:53;87358.00;;;-6.30
69597;BMP180;70000;51.176;-115.568;2024-02-16T20:31:23;87351.60;;;-6.20
69597;BMP180;70000;51.176;-115.568;2024-02-16T20:33:53;87350.40;;;-6.10
69597;BMP180;70000;51.176;-115.568;2024-02-16T20:36:22;87348.40;;;-6.00
69597;BMP180;70000;51.176;-115.568;2024-02-16T20:42:06;87340.60;;;-5.62
69597;BMP180;70000;51.176;-115.568;2024-02-16T20:47:06;87334.60;;;-5.50
69597;BMP180;70000;51.176;-115.568;2024-02-16T20:49:54;87331.00;;;-5.22
69597;BMP180;70000;51.176;-115.568;2024-02-16T20:55:30;87327.60;;;-4.92
69597;BMP180;70000;51.176;-115.568;2024-02-16T21:01:24;87327.20;;;-4.64
69597;BMP180;70000;51.176;-115.568;2024-02-16T21:03:52;87322.40;;;-4.54
69597;BMP180;70000;51.176;-115.568;2024-02-16T21:06:21;87323.80;;;-4.40
69597;BMP180;70000;51.176;-115.568;2024-02-16T21:08:50;87322.00;;;-4.22
69597;BMP180;70000;51.176;-115.568;2024-02-16T21:11:18;87317.60;;;-4.10
69597;BMP180;70000;51.176;-115.568;2024-02-16T21:13:46;87316.60;;;-4.00
69597;BMP180;70000;51.176;-115.568;2024-02-16T21:16:15;87312.60;;;-3.90
69597;BMP180;70000;51.176;-115.568;2024-02-16T21:18:43;87310.80;;;-3.80
69597;BMP180;70000;51.176;-115.568;2024-02-16T21:21:14;87308.20;;;-3.60
69597;BMP180;70000;51.176;-115.568;2024-02-16T21:23:43;87305.60;;;-3.40
69597;BMP180;70000;51.176;-115.568;2024-02-16T21:26:11;87301.20;;;-3.30
69597;BMP180;70000;51.176;-115.568;2024-02-16T21:28:42;87302.80;;;-3.12
69597;BMP180;70000;51.176;-115.568;2024-02-16T21:31:11;87300.20;;;-2.96
69597;BMP180;70000;51.176;-115.568;2024-02-16T21:33:39;87294.40;;;-2.80
69597;BMP180;70000;51.176;-115.568;2024-02-16T21:36:08;87290.60;;;-2.64
69597;BMP180;70000;51.176;-115.568;2024-02-16T21:38:38;87297.00;;;-2.50
69597;BMP180;70000;51.176;-115.568;2024-02-16T21:41:10;87292.20;;;-2.40
69597;BMP180;70000;51.176;-115.568;2024-02-16T21:43:55;87284.00;;;-2.22
69597;BMP180;70000;51.176;-115.568;2024-02-16T21:46:33;87279.00;;;-2.10
69597;BMP180;70000;51.176;-115.568;2024-02-16T21:49:06;87281.20;;;-1.96
69597;BMP180;70000;51.176;-115.568;2024-02-16T21:51:37;87275.60;;;-1.80
69597;BMP180;70000;51.176;-115.568;2024-02-16T21:54:07;87271.20;;;-1.70
69597;BMP180;70000;51.176;-115.568;2024-02-16T21:56:36;87266.40;;;-1.50
69597;BMP180;70000;51.176;-115.568;2024-02-16T21:59:05;87262.20;;;-1.40
69597;BMP180;70000;51.176;-115.568;2024-02-16T22:01:35;87255.80;;;-1.30
69597;BMP180;70000;51.176;-115.568;2024-02-16T22:04:05;87256.80;;;-1.20
69597;BMP180;70000;51.176;-115.568;2024-02-16T22:06:34;87254.80;;;-1.20
69597;BMP180;70000;51.176;-115.568;2024-02-16T22:09:04;87248.80;;;-1.10
69597;BMP180;70000;51.176;-115.568;2024-02-16T22:11:53;87245.60;;;-1.02
69597;BMP180;70000;51.176;-115.568;2024-02-16T22:14:25;87247.80;;;-0.90
69597;BMP180;70000;51.176;-115.568;2024-02-16T22:16:54;87250.60;;;-0.80
69597;BMP180;70000;51.176;-115.568;2024-02-16T22:19:23;87256.00;;;-0.70
69597;BMP180;70000;51.176;-115.568;2024-02-16T22:21:54;87260.20;;;-0.70
69597;BMP180;70000;51.176;-115.568;2024-02-16T22:24:25;87256.00;;;-0.60
69597;BMP180;70000;51.176;-115.568;2024-02-16T22:26:54;87249.20;;;-0.60
69597;BMP180;70000;51.176;-115.568;2024-02-16T22:29:26;87255.60;;;-0.52
69597;BMP180;70000;51.176;-115.568;2024-02-16T22:31:59;87256.20;;;-0.50
69597;BMP180;70000;51.176;-115.568;2024-02-16T22:34:43;87251.80;;;-0.40
69597;BMP180;70000;51.176;-115.568;2024-02-16T22:37:12;87242.60;;;-0.40
69597;BMP180;70000;51.176;-115.568;2024-02-16T22:39:41;87239.60;;;-0.30
69597;BMP180;70000;51.176;-115.568;2024-02-16T22:42:11;87241.80;;;-0.30
69597;BMP180;70000;51.176;-115.568;2024-02-16T22:44:40;87239.60;;;-0.20
69597;BMP180;70000;51.176;-115.568;2024-02-16T22:47:10;87238.80;;;-0.18
69597;BMP180;70000;51.176;-115.568;2024-02-16T22:53:03;87243.60;;;-0.02
69597;BMP180;70000;51.176;-115.568;2024-02-16T22:55:33;87243.20;;;0.00
69597;BMP180;70000;51.176;-115.568;2024-02-16T22:58:03;87246.40;;;0.00
69597;BMP180;70000;51.176;-115.568;2024-02-16T23:00:32;87244.60;;;0.10
69597;BMP180;70000;51.176;-115.568;2024-02-16T23:03:01;87245.80;;;0.10
69597;BMP180;70000;51.176;-115.568;2024-02-16T23:05:30;87243.00;;;0.20
69597;BMP180;70000;51.176;-115.568;2024-02-16T23:08:00;87238.20;;;0.30
69597;BMP180;70000;51.176;-115.568;2024-02-16T23:10:30;87245.00;;;0.40
69597;BMP180;70000;51.176;-115.568;2024-02-16T23:13:02;87242.20;;;0.50
69597;BMP180;70000;51.176;-115.568;2024-02-16T23:15:31;87239.40;;;0.50
69597;BMP180;70000;51.176;-115.568;2024-02-16T23:18:04;87240.40;;;0.52
69597;BMP180;70000;51.176;-115.568;2024-02-16T23:20:33;87243.40;;;0.60
69597;BMP180;70000;51.176;-115.568;2024-02-16T23:23:07;87240.80;;;0.60
69597;BMP180;70000;51.176;-115.568;2024-02-16T23:26:15;87243.20;;;0.74
69597;BMP180;70000;51.176;-115.568;2024-02-16T23:28:44;87247.60;;;0.80
69597;BMP180;70000;51.176;-115.568;2024-02-16T23:31:13;87240.80;;;0.80
69597;BMP180;70000;51.176;-115.568;2024-02-16T23:33:44;87241.40;;;0.80
69597;BMP180;70000;51.176;-115.568;2024-02-16T23:36:13;87242.40;;;0.80
69597;BMP180;70000;51.176;-115.568;2024-02-16T23:38:42;87249.00;;;0.80